Time;durP1;ratioP1;P1;durP2;ratioP2;P2;SDS_P1;SDS_P2;PMS_P1;PMS_P2;Temp;Humidity;BMP_temperature;BMP_pressure;BME280_temperature;BME280_humidity;BME280_pressure;Samples;Min_cycle;Max_cycle;Signal;HPM_P1;HPM_P2
2023/06/23 00:01:20;;;;;;;11.82;6.72;;;18.60;99.90;;;;;;4967772;28;20199;-89
2023/06/23 00:03:46;;;;;;;9.48;6.30;;;18.60;99.90;;;;;;4958596;29;20242;-89
2023/06/23 00:06:12;;;;;;;9.95;6.40;;;18.50;99.90;;;;;;4957471;29;20187;-88
2023/06/23 00:08:41;;;;;;;9.88;6.53;;;18.50;99.90;;;;;;4957330;29;20171;-89
2023/06/23 00:11:10;;;;;;;9.98;6.10;;;18.50;99.90;;;;;;4957759;29;20262;-89
2023/06/23 00:13:39;;;;;;;13.52;6.35;;;18.50;99.90;;;;;;4956870;29;20223;-89
2023/06/23 00:16:06;;;;;;;8.63;5.75;;;18.50;99.90;;;;;;4956962;29;20179;-89
2023/06/23 00:18:36;;;;;;;9.05;6.18;;;18.40;99.90;;;;;;4956509;29;20195;-89
2023/06/23 00:21:09;;;;;;;13.27;6.45;;;18.40;99.90;;;;;;4956763;29;20198;-90
2023/06/23 00:23:36;;;;;;;10.65;6.22;;;18.40;99.90;;;;;;4956616;29;20210;-90
2023/06/23 00:26:04;;;;;;;9.38;6.45;;;18.40;99.90;;;;;;4958079;29;20179;-90
2023/06/23 00:28:30;;;;;;;13.38;6.05;;;18.30;99.90;;;;;;4940187;29;20321;-89
2023/06/23 00:30:56;;;;;;;10.63;6.43;;;18.30;99.90;;;;;;4956228;29;20214;-90
2023/06/23 00:33:21;;;;;;;10.70;6.53;;;18.20;99.90;;;;;;4942897;29;20703;-89
2023/06/23 00:35:47;;;;;;;12.20;6.63;;;18.20;99.90;;;;;;4955943;29;20183;-88
2023/06/23 00:38:13;;;;;;;8.25;5.82;;;18.20;99.90;;;;;;4957264;29;20274;-89
2023/06/23 00:40:40;;;;;;;9.63;6.60;;;18.10;99.90;;;;;;4957313;29;20179;-89
2023/06/23 00:43:07;;;;;;;11.52;6.13;;;18.10;99.90;;;;;;4958036;29;20189;-91
2023/06/23 00:45:33;;;;;;;8.57;5.97;;;18.00;99.90;;;;;;4939239;29;20238;-87
2023/06/23 00:48:00;;;;;;;11.52;6.57;;;18.00;99.90;;;;;;4955948;29;20183;-88
2023/06/23 00:50:26;;;;;;;9.45;6.43;;;18.00;99.90;;;;;;4940928;29;20190;-85
2023/06/23 00:52:52;;;;;;;10.70;7.07;;;17.90;99.90;;;;;;4940119;29;20287;-89
2023/06/23 00:55:20;;;;;;;11.82;6.97;;;17.90;99.90;;;;;;4957164;29;20175;-90
2023/06/23 00:57:47;;;;;;;8.45;6.15;;;17.80;99.90;;;;;;4956610;29;20666;-88
2023/06/23 01:00:17;;;;;;;10.27;6.57;;;17.80;99.90;;;;;;4955802;29;20696;-88
2023/06/23 01:02:49;;;;;;;10.38;6.22;;;17.80;99.90;;;;;;4955629;29;20180;-87
2023/06/23 01:05:19;;;;;;;10.88;6.85;;;17.80;99.90;;;;;;4955213;29;20625;-89
2023/06/23 01:08:08;;;;;;;9.95;6.30;;;17.70;99.90;;;;;;4947331;29;20242;-88
2023/06/23 01:10:42;;;;;;;10.60;6.38;;;17.70;99.90;;;;;;4956205;28;20267;-89
2023/06/23 01:13:21;;;;;;;10.88;6.85;;;17.70;99.90;;;;;;4956020;28;20686;-89
2023/06/23 01:16:10;;;;;;;9.43;6.45;;;17.70;99.90;;;;;;4953927;29;20210;-89
2023/06/23 01:18:38;;;;;;;10.95;6.60;;;17.60;99.90;;;;;;4950526;29;20191;-89
2023/06/23 01:21:08;;;;;;;11.00;6.80;;;17.60;99.90;;;;;;4955548;28;20283;-89
2023/06/23 01:23:45;;;;;;;13.07;6.57;;;17.60;99.90;;;;;;4955449;28;20223;-88
2023/06/23 01:26:28;;;;;;;9.13;6.78;;;17.60;99.90;;;;;;4955811;28;20159;-89
2023/06/23 01:29:09;;;;;;;9.20;5.72;;;17.60;99.90;;;;;;4954573;29;20187;-89
2023/06/23 01:32:04;;;;;;;8.82;5.68;;;17.60;99.90;;;;;;4955643;28;20163;-89
2023/06/23 01:34:37;;;;;;;9.85;5.75;;;17.50;99.90;;;;;;4951551;28;20246;-89
2023/06/23 01:37:10;;;;;;;9.88;6.07;;;17.50;99.90;;;;;;4960040;28;20177;-86
2023/06/23 01:39:39;;;;;;;10.75;6.05;;;17.50;99.90;;;;;;4974874;28;20179;-84
2023/06/23 01:42:14;;;;;;;9.60;6.00;;;17.50;99.90;;;;;;4982727;28;20214;-87
2023/06/23 01:44:45;;;;;;;9.38;6.03;;;17.50;99.90;;;;;;4963300;28;20167;-87
2023/06/23 01:47:26;;;;;;;7.75;5.45;;;17.50;99.90;;;;;;4960362;28;20635;-88
2023/06/23 01:49:54;;;;;;;9.57;5.72;;;17.50;99.90;;;;;;4958830;28;20298;-88
2023/06/23 01:52:21;;;;;;;9.38;5.13;;;17.50;99.90;;;;;;4957046;29;20186;-88
2023/06/23 01:54:49;;;;;;;11.02;6.10;;;17.40;99.90;;;;;;4957641;28;20214;-87
2023/06/23 01:57:18;;;;;;;9.73;5.80;;;17.40;99.90;;;;;;4957882;28;20175;-87
2023/06/23 01:59:45;;;;;;;9.45;6.35;;;17.40;99.90;;;;;;4957948;28;20258;-87
2023/06/23 02:02:15;;;;;;;10.20;6.53;;;17.40;99.90;;;;;;4956973;29;20180;-88
2023/06/23 02:04:43;;;;;;;8.48;5.93;;;17.40;99.90;;;;;;4957662;28;20179;-86
2023/06/23 02:07:13;;;;;;;11.57;6.88;;;17.30;99.90;;;;;;4956488;29;20227;-87
2023/06/23 02:09:41;;;;;;;10.82;6.10;;;17.30;99.90;;;;;;4957396;28;20179;-85
2023/06/23 02:12:08;;;;;;;18.30;7.95;;;17.30;99.90;;;;;;4957865;28;20211;-88
2023/06/23 02:14:35;;;;;;;11.32;6.10;;;17.30;99.90;;;;;;4957844;28;20231;-88
2023/06/23 02:17:03;;;;;;;11.93;6.45;;;17.30;99.90;;;;;;4957441;28;20287;-88
2023/06/23 02:19:31;;;;;;;10.43;6.47;;;17.20;99.90;;;;;;4957929;28;20176;-88
2023/06/23 02:21:58;;;;;;;14.95;7.07;;;17.20;99.90;;;;;;4957309;28;20189;-88
2023/06/23 02:24:25;;;;;;;11.93;6.80;;;17.20;99.90;;;;;;4957612;28;20187;-88
2023/06/23 02:26:53;;;;;;;11.10;6.50;;;17.20;99.90;;;;;;4940368;29;20190;-87
2023/06/23 02:29:20;;;;;;;10.15;6.18;;;17.20;99.90;;;;;;4958457;28;20175;-87
2023/06/23 02:31:46;;;;;;;13.38;6.95;;;17.10;99.90;;;;;;4957059;28;20695;-86
2023/06/23 02:34:12;;;;;;;11.63;6.72;;;17.00;99.90;;;;;;4957304;28;20211;-88
2023/06/23 02:36:46;;;;;;;14.20;6.38;;;17.00;99.90;;;;;;4957385;28;20191;-87
2023/06/23 02:39:15;;;;;;;10.38;6.68;;;16.90;99.90;;;;;;4957693;28;20246;-87
2023/06/23 02:41:43;;;;;;;10.05;6.38;;;16.90;99.90;;;;;;4957380;28;20667;-87
2023/06/23 02:44:15;;;;;;;9.90;5.93;;;16.80;99.90;;;;;;4956992;28;20183;-88
2023/06/23 02:46:45;;;;;;;10.88;6.63;;;16.80;99.90;;;;;;4956606;28;20164;-87
2023/06/23 02:49:16;;;;;;;12.02;6.70;;;16.70;99.90;;;;;;4957198;28;20174;-87
2023/06/23 02:51:44;;;;;;;15.43;6.72;;;16.70;99.90;;;;;;4957208;28;20636;-88
2023/06/23 02:54:13;;;;;;;11.32;6.00;;;16.80;99.90;;;;;;4957013;28;20218;-88
2023/06/23 02:56:42;;;;;;;11.68;7.40;;;16.80;99.90;;;;;;4957030;28;20226;-88
2023/06/23 02:59:13;;;;;;;12.82;6.75;;;16.90;99.90;;;;;;4956782;28;20266;-88
2023/06/23 03:01:41;;;;;;;15.80;7.35;;;16.90;99.90;;;;;;4956977;28;20167;-88
2023/06/23 03:04:07;;;;;;;13.52;6.93;;;16.90;99.90;;;;;;4956607;28;20187;-88
2023/06/23 03:06:34;;;;;;;10.45;6.82;;;16.90;99.90;;;;;;4939391;29;20239;-87
2023/06/23 03:09:02;;;;;;;9.38;6.38;;;16.90;99.90;;;;;;4956686;28;20168;-89
2023/06/23 03:11:29;;;;;;;13.20;7.32;;;17.00;99.90;;;;;;4956807;28;20203;-87
2023/06/23 03:13:54;;;;;;;11.07;7.10;;;17.00;99.90;;;;;;4955171;29;20215;-88
2023/06/23 03:16:31;;;;;;;10.45;6.78;;;17.00;99.90;;;;;;4956324;28;20547;-88
2023/06/23 03:19:36;;;;;;;11.70;6.85;;;17.10;99.90;;;;;;4956570;28;20209;-87
2023/06/23 03:22:08;;;;;;;12.50;6.32;;;17.10;99.90;;;;;;4954280;29;20226;-89
2023/06/23 03:24:41;;;;;;;10.80;7.25;;;17.20;99.90;;;;;;4956673;28;20221;-88
2023/06/23 03:27:09;;;;;;;14.10;6.88;;;17.20;99.90;;;;;;4955031;29;20233;-88
2023/06/23 03:29:42;;;;;;;11.95;6.88;;;17.30;99.90;;;;;;4956344;28;20191;-88
2023/06/23 03:32:12;;;;;;;11.25;6.95;;;17.50;99.90;;;;;;4955896;28;20170;-88
2023/06/23 03:34:43;;;;;;;10.30;6.88;;;17.50;99.90;;;;;;4956189;28;20199;-88
2023/06/23 03:37:11;;;;;;;11.73;6.47;;;17.50;99.90;;;;;;4956140;28;20676;-88
2023/06/23 03:39:40;;;;;;;14.70;6.63;;;17.50;99.90;;;;;;4956188;28;20310;-88
2023/06/23 03:42:07;;;;;;;12.60;6.63;;;17.60;99.90;;;;;;4956508;28;20186;-87
2023/06/23 03:44:42;;;;;;;13.15;6.32;;;17.60;99.90;;;;;;4965009;28;20198;-87
2023/06/23 03:47:17;;;;;;;15.35;7.65;;;17.60;99.90;;;;;;4979787;28;20190;-86
2023/06/23 03:49:46;;;;;;;11.18;6.72;;;17.70;99.90;;;;;;4961847;29;20178;-86
2023/06/23 03:52:15;;;;;;;11.27;7.28;;;17.80;99.90;;;;;;4960840;28;20545;-87
2023/06/23 03:54:43;;;;;;;11.07;6.85;;;17.90;99.90;;;;;;4978423;28;20233;-87
2023/06/23 03:57:23;;;;;;;12.98;7.40;;;17.90;99.90;;;;;;4953702;28;20675;-87
2023/06/23 03:59:50;;;;;;;16.20;8.27;;;18.00;99.90;;;;;;4955270;28;20194;-88
2023/06/23 04:02:20;;;;;;;19.90;9.75;;;18.20;99.90;;;;;;4953860;29;20184;-87
2023/06/23 04:04:48;;;;;;;20.35;10.05;;;18.20;99.90;;;;;;4955133;28;20183;-87
2023/06/23 04:07:14;;;;;;;25.00;11.57;;;18.40;99.90;;;;;;4954525;28;20238;-87
2023/06/23 04:09:43;;;;;;;24.77;10.90;;;18.50;99.90;;;;;;4955109;29;20183;-87
2023/06/23 04:12:12;;;;;;;21.55;11.23;;;18.60;99.90;;;;;;4955032;29;20199;-86
2023/06/23 04:14:39;;;;;;;22.45;12.23;;;18.80;99.90;;;;;;4954961;29;20211;-87
2023/06/23 04:17:08;;;;;;;23.95;12.77;;;18.80;99.90;;;;;;4955065;29;20695;-88
2023/06/23 04:19:36;;;;;;;18.52;12.20;;;19.00;99.90;;;;;;4955202;29;20190;-87
2023/06/23 04:22:04;;;;;;;25.85;10.82;;;19.10;99.90;;;;;;4953958;29;20179;-87
2023/06/23 04:24:32;;;;;;;21.15;10.27;;;19.20;99.90;;;;;;4954491;28;20553;-86
2023/06/23 04:27:01;;;;;;;18.25;9.68;;;19.30;99.90;;;;;;4947824;29;20202;-87
2023/06/23 04:29:28;;;;;;;18.38;12.63;;;19.50;99.90;;;;;;4953343;29;20333;-88
2023/06/23 04:31:56;;;;;;;17.55;11.27;;;19.70;99.90;;;;;;4961280;28;20199;-88
2023/06/23 04:34:21;;;;;;;19.27;11.05;;;19.80;99.90;;;;;;4967583;28;20211;-85
2023/06/23 04:37:10;;;;;;;19.83;10.88;;;19.90;99.90;;;;;;4953101;29;20183;-86
2023/06/23 04:39:51;;;;;;;19.27;11.65;;;20.00;99.90;;;;;;4953275;29;20371;-89
2023/06/23 04:42:24;;;;;;;18.60;11.80;;;20.30;99.90;;;;;;4952542;29;20211;-87
2023/06/23 04:44:53;;;;;;;16.95;10.88;;;20.40;99.90;;;;;;4952517;28;20539;-86
2023/06/23 04:47:22;;;;;;;14.82;10.18;;;20.60;99.90;;;;;;4967890;28;20526;-86
2023/06/23 04:49:54;;;;;;;16.92;10.73;;;20.60;99.90;;;;;;4953368;29;20179;-87
2023/06/23 04:52:21;;;;;;;15.48;10.63;;;20.60;99.90;;;;;;4935678;29;20191;-86
2023/06/23 04:54:49;;;;;;;17.25;11.20;;;20.60;99.90;;;;;;4967609;28;20672;-87
2023/06/23 04:57:19;;;;;;;16.00;9.93;;;20.70;99.90;;;;;;4953123;29;20186;-89
2023/06/23 04:59:58;;;;;;;16.33;10.43;;;20.90;99.90;;;;;;4944039;29;20182;-88
2023/06/23 05:02:25;;;;;;;14.73;9.50;;;20.90;99.90;;;;;;4953531;29;20187;-86
2023/06/23 05:04:53;;;;;;;15.00;9.68;;;21.00;99.90;;;;;;4953795;29;20660;-87
2023/06/23 05:07:20;;;;;;;13.88;9.85;;;21.00;99.90;;;;;;4973701;28;20270;-87
2023/06/23 05:09:48;;;;;;;15.15;9.82;;;21.20;99.90;;;;;;4956601;28;20183;-88
2023/06/23 05:12:18;;;;;;;15.63;10.10;;;21.20;99.90;;;;;;4957032;28;20179;-86
2023/06/23 05:14:45;;;;;;;14.68;10.20;;;21.30;99.90;;;;;;4956232;28;20585;-86
2023/06/23 05:17:14;;;;;;;17.05;9.38;;;21.30;99.90;;;;;;4959526;29;20187;-90
2023/06/23 05:19:42;;;;;;;13.40;9.77;;;21.50;99.90;;;;;;4974702;28;20183;-94
2023/06/23 05:22:12;;;;;;;15.95;9.93;;;21.60;99.90;;;;;;4958237;28;20250;-91
2023/06/23 05:24:42;;;;;;;14.88;9.73;;;21.70;99.90;;;;;;4957957;28;20195;-91
2023/06/23 05:27:10;;;;;;;14.10;8.77;;;21.80;99.90;;;;;;4948566;29;20190;-92
2023/06/23 05:29:39;;;;;;;14.20;8.90;;;21.90;99.90;;;;;;4969052;28;20188;-92
2023/06/23 05:32:08;;;;;;;11.88;8.48;;;22.00;99.90;;;;;;4956951;28;20213;-91
2023/06/23 05:34:35;;;;;;;14.93;8.63;;;22.10;99.90;;;;;;4955500;28;20207;-92
2023/06/23 05:37:03;;;;;;;13.27;9.52;;;22.20;99.90;;;;;;4973421;28;20285;-91
2023/06/23 05:39:31;;;;;;;13.80;9.05;;;22.30;99.90;;;;;;4976669;28;20270;-90
2023/06/23 05:41:57;;;;;;;15.32;8.75;;;22.40;99.90;;;;;;4991831;28;20263;-87
2023/06/23 05:44:23;;;;;;;13.60;8.32;;;22.50;99.90;;;;;;4972245;28;20219;-92
2023/06/23 05:46:56;;;;;;;13.30;8.75;;;22.60;99.90;;;;;;4956557;28;20230;-92
2023/06/23 05:49:24;;;;;;;12.20;8.07;;;22.70;99.90;;;;;;4955347;28;20667;-91
2023/06/23 05:51:55;;;;;;;10.27;7.60;;;22.80;99.90;;;;;;4954268;28;20181;-91
2023/06/23 05:54:22;;;;;;;15.55;7.78;;;22.80;99.90;;;;;;4956236;28;20207;-92
2023/06/23 05:56:54;;;;;;;12.15;8.45;;;22.90;99.90;;;;;;4988529;28;20183;-91
2023/06/23 05:59:27;;;;;;;11.57;7.82;;;22.90;99.90;;;;;;4960052;28;20197;-92
2023/06/23 06:01:57;;;;;;;11.73;7.65;;;23.00;99.90;;;;;;4975099;28;20179;-92
2023/06/23 06:04:27;;;;;;;13.65;8.05;;;23.10;99.90;;;;;;4956325;28;20234;-91
2023/06/23 06:06:56;;;;;;;16.08;7.40;;;23.20;99.90;;;;;;4987047;28;20271;-92
2023/06/23 06:09:23;;;;;;;10.18;7.50;;;23.40;99.90;;;;;;4970541;28;20217;-91
2023/06/23 06:11:51;;;;;;;14.70;7.95;;;23.40;99.90;;;;;;4986994;28;20714;-91
2023/06/23 06:14:18;;;;;;;12.27;8.48;;;23.50;99.90;;;;;;4956390;28;20687;-90
2023/06/23 06:16:45;;;;;;;12.80;7.93;;;23.60;99.90;;;;;;4971457;28;20202;-91
2023/06/23 06:19:13;;;;;;;16.08;8.15;;;23.70;99.90;;;;;;4973716;28;20549;-87
2023/06/23 06:21:41;;;;;;;13.63;7.82;;;23.80;99.90;;;;;;4965647;28;20245;-94
2023/06/23 06:24:09;;;;;;;13.35;7.85;;;23.90;99.90;;;;;;4971766;28;20183;-93
2023/06/23 06:26:35;;;;;;;15.75;7.72;;;24.00;99.90;;;;;;4976393;28;20182;-90
2023/06/23 06:29:05;;;;;;;11.40;7.22;;;24.10;99.90;;;;;;4991397;28;20543;-91
2023/06/23 06:31:36;;;;;;;11.35;7.40;;;24.20;99.90;;;;;;4976963;28;20171;-91
2023/06/23 06:34:05;;;;;;;10.98;6.88;;;24.30;99.90;;;;;;4979818;28;20600;-91
2023/06/23 06:36:34;;;;;;;10.60;6.82;;;24.30;99.90;;;;;;4960272;28;20210;-90
2023/06/23 06:39:02;;;;;;;9.57;7.15;;;24.30;99.90;;;;;;4975089;28;20217;-91
2023/06/23 06:41:30;;;;;;;11.90;7.18;;;24.30;99.90;;;;;;4976917;28;20182;-91
2023/06/23 06:43:57;;;;;;;8.52;6.50;;;24.40;99.90;;;;;;4975043;28;20651;-90
2023/06/23 06:46:24;;;;;;;10.07;7.07;;;24.40;99.90;;;;;;4975766;28;20238;-92
2023/06/23 06:48:50;;;;;;;12.27;7.28;;;24.40;99.90;;;;;;4970082;28;20210;-89
2023/06/23 06:51:17;;;;;;;12.57;5.80;;;24.50;99.90;;;;;;4990742;28;20623;-90
2023/06/23 06:53:44;;;;;;;22.85;12.95;;;24.50;99.90;;;;;;4975895;28;20214;-91
2023/06/23 06:56:11;;;;;;;8.73;6.18;;;24.60;99.90;;;;;;4958727;28;20210;-90
2023/06/23 06:58:37;;;;;;;9.32;6.38;;;24.70;99.90;;;;;;4974475;28;20190;-90
2023/06/23 07:01:03;;;;;;;8.70;6.05;;;24.60;99.90;;;;;;4975702;28;20189;-89
2023/06/23 07:03:32;;;;;;;10.70;6.00;;;24.60;99.90;;;;;;4975645;28;20187;-90
2023/06/23 07:05:58;;;;;;;9.10;6.05;;;24.70;99.90;;;;;;4974440;28;20636;-93
2023/06/23 07:08:23;;;;;;;8.30;5.53;;;24.90;99.90;;;;;;4958824;28;20285;-91
2023/06/23 07:10:49;;;;;;;10.98;5.82;;;25.10;99.90;;;;;;4959316;28;20182;-92
2023/06/23 07:13:15;;;;;;;7.57;5.25;;;25.30;99.90;;;;;;4967446;28;20191;-90
2023/06/23 07:15:40;;;;;;;8.27;5.18;;;25.40;99.90;;;;;;4961586;28;20187;-90
2023/06/23 07:18:06;;;;;;;6.30;4.97;;;25.70;99.90;;;;;;4949927;28;20212;-93
2023/06/23 07:20:31;;;;;;;6.70;4.78;;;25.80;99.90;;;;;;4967437;28;20187;-91
2023/06/23 07:22:57;;;;;;;8.85;4.57;;;25.90;99.90;;;;;;4965300;28;20189;-90
2023/06/23 07:25:23;;;;;;;6.88;5.15;;;26.00;99.90;;;;;;4970710;28;20202;-93
2023/06/23 07:27:48;;;;;;;5.75;4.53;;;26.10;99.90;;;;;;4960216;28;20233;-92
2023/06/23 07:30:15;;;;;;;6.28;4.53;;;26.00;99.90;;;;;;4959893;28;20199;-95
2023/06/23 07:32:41;;;;;;;6.60;4.78;;;26.00;99.90;;;;;;4957039;28;20185;-93
2023/06/23 07:35:09;;;;;;;8.10;5.20;;;26.00;99.90;;;;;;4957138;29;20231;-93
2023/06/23 07:37:35;;;;;;;7.80;4.50;;;26.10;99.90;;;;;;4959749;28;20238;-92
2023/06/23 07:40:00;;;;;;;6.90;4.47;;;26.10;99.90;;;;;;4939379;29;20538;-93
2023/06/23 07:42:27;;;;;;;9.68;4.70;;;26.20;99.90;;;;;;4966969;28;20562;-94
2023/06/23 07:44:53;;;;;;;6.75;4.35;;;26.20;99.90;;;;;;4971683;28;20190;-95
2023/06/23 07:47:18;;;;;;;7.45;4.35;;;26.30;99.90;;;;;;4969133;28;20186;-94
2023/06/23 07:49:44;;;;;;;8.48;4.60;;;26.30;99.90;;;;;;4974774;28;20564;-94
2023/06/23 07:52:10;;;;;;;6.85;4.90;;;26.30;99.90;;;;;;4964755;28;20491;-94
2023/06/23 07:54:41;;;;;;;53.90;11.43;;;26.40;99.90;;;;;;4955198;28;20293;-94
2023/06/23 07:57:11;;;;;;;24.67;6.28;;;26.50;99.90;;;;;;4971325;28;20205;-95
2023/06/23 07:59:37;;;;;;;8.85;5.13;;;26.60;99.90;;;;;;4955252;29;20183;-94
2023/06/23 08:02:03;;;;;;;9.07;5.07;;;26.60;99.90;;;;;;4953790;29;20668;-91
2023/06/23 08:04:29;;;;;;;6.63;4.80;;;26.70;99.90;;;;;;4955894;29;20253;-91
2023/06/23 08:06:55;;;;;;;6.03;4.68;;;26.90;99.90;;;;;;4977465;28;20291;-90
2023/06/23 08:09:21;;;;;;;5.07;4.03;;;27.00;99.90;;;;;;4978047;28;20179;-89
2023/06/23 08:11:46;;;;;;;6.82;4.28;;;27.10;99.90;;;;;;4961388;29;20175;-89
2023/06/23 08:14:12;;;;;;;5.45;4.63;;;27.10;99.90;;;;;;4977700;28;20267;-89
2023/06/23 08:16:38;;;;;;;5.07;3.90;;;27.20;99.90;;;;;;4979723;28;20168;-89
2023/06/23 08:19:04;;;;;;;4.93;3.92;;;27.10;99.90;;;;;;4979612;28;20160;-91
2023/06/23 08:21:30;;;;;;;6.03;3.97;;;27.10;99.90;;;;;;4979423;28;20183;-89
2023/06/23 08:23:56;;;;;;;4.85;4.00;;;27.20;99.90;;;;;;4963484;28;20198;-94
2023/06/23 08:26:22;;;;;;;6.93;5.00;;;27.30;99.90;;;;;;4974192;28;20179;-94
2023/06/23 08:28:48;;;;;;;5.97;4.70;;;27.20;99.90;;;;;;4957610;29;20632;-95
2023/06/23 08:31:13;;;;;;;6.95;4.45;;;27.10;99.90;;;;;;4956354;29;20537;-93
2023/06/23 08:33:40;;;;;;;6.47;4.15;;;27.00;99.90;;;;;;4955400;29;20238;-93
2023/06/23 08:36:06;;;;;;;5.55;3.90;;;27.00;99.90;;;;;;4954888;29;20274;-94
2023/06/23 08:38:31;;;;;;;6.22;4.57;;;27.20;99.90;;;;;;4956072;29;20182;-94
2023/06/23 08:40:58;;;;;;;11.68;5.63;;;27.20;99.90;;;;;;4956056;29;20183;-95
2023/06/23 08:43:27;;;;;;;9.23;4.38;;;27.20;99.90;;;;;;4955272;28;20179;-93
2023/06/23 08:45:59;;;;;;;6.20;4.32;;;27.10;99.90;;;;;;4943987;28;20217;-92
2023/06/23 08:48:27;;;;;;;14.90;6.13;;;26.90;99.90;;;;;;4963101;28;20171;-93
2023/06/23 08:50:59;;;;;;;14.52;6.97;;;26.60;99.90;;;;;;4955529;29;20602;-93
2023/06/23 08:53:25;;;;;;;9.65;6.65;;;26.10;99.90;;;;;;4955824;29;20163;-93
2023/06/23 08:55:52;;;;;;;12.65;6.45;;;25.60;99.90;;;;;;4954880;29;20179;-93
2023/06/23 08:58:19;;;;;;;7.78;5.85;;;24.80;99.90;;;;;;4955478;29;20186;-93
2023/06/23 09:00:46;;;;;;;11.80;5.50;;;24.30;99.90;;;;;;4955812;29;20171;-94
2023/06/23 09:03:13;;;;;;;7.03;4.10;;;23.50;99.90;;;;;;4955498;29;20645;-92
2023/06/23 09:05:40;;;;;;;5.05;3.42;;;22.70;99.90;;;;;;4955610;29;20171;-92
2023/06/23 09:08:07;;;;;;;5.30;3.45;;;21.90;99.90;;;;;;4955138;29;20708;-93
2023/06/23 09:10:32;;;;;;;7.78;3.92;;;21.40;99.90;;;;;;4955114;29;20175;-92
2023/06/23 09:13:07;;;;;;;3.85;2.60;;;21.10;99.90;;;;;;4954314;29;20210;-92
2023/06/23 09:15:37;;;;;;;4.82;3.03;;;20.90;99.90;;;;;;4955363;29;20702;-92
2023/06/23 09:18:03;;;;;;;15.20;4.00;;;20.80;99.90;;;;;;4955764;29;20176;-93
2023/06/23 09:20:32;;;;;;;6.25;3.05;;;20.80;99.90;;;;;;4955523;29;20719;-93
2023/06/23 09:22:58;;;;;;;8.38;3.60;;;20.70;99.90;;;;;;4957939;29;20715;-94
2023/06/23 09:25:41;;;;;;;8.23;3.78;;;20.70;99.90;;;;;;4954746;29;20262;-93
2023/06/23 09:28:06;;;;;;;6.85;3.22;;;20.70;99.90;;;;;;4938611;29;20273;-93
2023/06/23 09:30:33;;;;;;;5.75;3.95;;;20.70;99.90;;;;;;4938377;29;20203;-93
2023/06/23 09:33:00;;;;;;;5.78;3.85;;;20.70;99.90;;;;;;4954309;29;20269;-94
2023/06/23 09:35:26;;;;;;;8.75;3.85;;;20.70;99.90;;;;;;4955330;29;20215;-94
2023/06/23 09:37:52;;;;;;;6.82;4.47;;;20.80;99.90;;;;;;4937917;29;20175;-92
2023/06/23 09:40:27;;;;;;;6.45;4.45;;;20.60;99.90;;;;;;4955163;29;20516;-92
2023/06/23 09:42:57;;;;;;;7.32;4.45;;;20.50;99.90;;;;;;4953704;29;20189;-89
2023/06/23 09:45:23;;;;;;;11.15;4.82;;;20.60;99.90;;;;;;4954036;29;20183;-91
2023/06/23 09:47:49;;;;;;;6.57;4.47;;;20.60;99.90;;;;;;4938113;29;20187;-94
2023/06/23 09:50:16;;;;;;;7.18;3.90;;;20.60;99.90;;;;;;4954899;29;20171;-90
2023/06/23 09:52:42;;;;;;;7.25;4.15;;;20.60;99.90;;;;;;4954750;29;20211;-88
2023/06/23 09:55:08;;;;;;;5.60;3.88;;;20.50;99.90;;;;;;4939715;29;20258;-89
2023/06/23 09:57:33;;;;;;;9.88;4.63;;;20.50;99.90;;;;;;4957259;29;20551;-90
2023/06/23 10:00:00;;;;;;;5.55;4.15;;;20.40;99.90;;;;;;4956851;29;20203;-89
2023/06/23 10:02:29;;;;;;;7.30;4.03;;;20.30;99.90;;;;;;4940955;29;20274;-89
2023/06/23 10:05:03;;;;;;;8.23;4.70;;;20.30;99.90;;;;;;4940570;29;20246;-89
2023/06/23 10:07:30;;;;;;;6.93;4.03;;;20.40;99.90;;;;;;4960865;28;20229;-89
2023/06/23 10:10:07;;;;;;;6.50;3.88;;;20.30;99.90;;;;;;4969130;29;20179;-89
2023/06/23 10:12:33;;;;;;;8.40;4.32;;;20.30;99.90;;;;;;4958335;29;20206;-90
2023/06/23 10:14:59;;;;;;;5.80;3.65;;;20.40;99.90;;;;;;4957563;29;20203;-90
2023/06/23 10:17:25;;;;;;;5.90;3.65;;;20.30;99.90;;;;;;4956157;29;20190;-92
2023/06/23 10:19:55;;;;;;;8.15;3.53;;;20.40;99.90;;;;;;4957189;29;20179;-90
2023/06/23 10:22:21;;;;;;;6.07;3.60;;;20.30;99.90;;;;;;4936354;29;20187;-91
2023/06/23 10:24:59;;;;;;;5.38;3.88;;;20.30;99.90;;;;;;4957272;29;20719;-90
2023/06/23 10:27:26;;;;;;;5.10;3.08;;;20.40;99.90;;;;;;4957062;29;20181;-92
2023/06/23 10:29:58;;;;;;;8.70;3.50;;;20.40;99.90;;;;;;4955583;29;20184;-89
2023/06/23 10:32:30;;;;;;;4.95;3.67;;;20.50;99.90;;;;;;4955364;29;20179;-88
2023/06/23 10:34:58;;;;;;;8.75;3.13;;;20.50;99.90;;;;;;4957221;29;20217;-89
2023/06/23 10:37:26;;;;;;;7.85;3.55;;;20.40;99.90;;;;;;4940519;29;20183;-89
2023/06/23 10:40:02;;;;;;;5.97;3.25;;;20.40;99.90;;;;;;4956124;29;20182;-89
2023/06/23 10:42:30;;;;;;;5.82;3.33;;;20.40;99.90;;;;;;4956989;29;20174;-89
2023/06/23 10:44:58;;;;;;;5.20;2.60;;;20.30;99.90;;;;;;4956987;29;20266;-89
2023/06/23 10:47:24;;;;;;;3.50;2.53;;;20.30;99.90;;;;;;4938513;29;20196;-90
2023/06/23 10:49:52;;;;;;;4.65;2.65;;;20.20;99.90;;;;;;4916661;29;20204;-90
2023/06/23 10:52:18;;;;;;;3.78;2.70;;;20.20;99.90;;;;;;4924822;29;20196;-89
2023/06/23 10:54:44;;;;;;;3.63;2.80;;;20.30;99.90;;;;;;4929468;29;20292;-90
2023/06/23 10:57:11;;;;;;;2.92;2.50;;;20.30;99.90;;;;;;4924699;29;20232;-90
2023/06/23 10:59:57;;;;;;;4.50;2.60;;;20.50;99.90;;;;;;4930062;29;20192;-89
2023/06/23 11:02:23;;;;;;;3.25;1.95;;;20.40;99.90;;;;;;4937189;29;20179;-89
2023/06/23 11:04:57;;;;;;;4.55;2.10;;;20.20;99.90;;;;;;4919943;29;20540;-90
2023/06/23 11:07:23;;;;;;;5.43;2.30;;;20.10;99.90;;;;;;4945771;29;20592;-89
2023/06/23 11:09:57;;;;;;;3.88;2.00;;;20.10;99.90;;;;;;4955665;29;20615;-89
2023/06/23 11:12:29;;;;;;;5.20;1.88;;;20.00;99.90;;;;;;4957903;29;20266;-88
2023/06/23 11:15:01;;;;;;;5.40;2.15;;;20.00;99.90;;;;;;4954188;29;20213;-89
2023/06/23 11:17:27;;;;;;;8.18;2.70;;;20.00;99.90;;;;;;4952959;28;20189;-90
2023/06/23 11:19:53;;;;;;;5.35;1.77;;;20.00;99.90;;;;;;4986444;28;20183;-88
2023/06/23 11:22:23;;;;;;;2.75;2.33;;;20.10;99.90;;;;;;4961023;28;20199;-88
2023/06/23 11:24:53;;;;;;;3.40;2.40;;;20.00;99.90;;;;;;4961278;28;20182;-87
2023/06/23 11:27:19;;;;;;;3.70;1.70;;;20.10;99.90;;;;;;4962840;28;20187;-88
2023/06/23 11:30:15;;;;;;;5.93;2.08;;;20.10;99.90;;;;;;4960864;28;20179;-90
2023/06/23 11:32:41;;;;;;;4.78;1.92;;;20.20;99.90;;;;;;4958485;28;20202;-89
2023/06/23 11:35:08;;;;;;;8.63;2.55;;;20.30;99.90;;;;;;4962490;28;20683;-89
2023/06/23 11:37:34;;;;;;;4.32;2.00;;;20.30;99.90;;;;;;4966067;28;20233;-89
2023/06/23 11:40:05;;;;;;;1.98;1.30;;;20.40;99.90;;;;;;4946389;28;20668;-89
2023/06/23 11:42:31;;;;;;;5.28;1.70;;;20.30;99.90;;;;;;4969096;28;20206;-90
2023/06/23 11:44:57;;;;;;;3.40;1.98;;;20.30;99.90;;;;;;4960956;28;20233;-88
2023/06/23 11:47:27;;;;;;;10.25;1.75;;;20.30;99.90;;;;;;4959425;28;20302;-88
2023/06/23 11:49:54;;;;;;;3.08;1.30;;;20.40;99.90;;;;;;4961335;28;20436;-90
2023/06/23 11:52:21;;;;;;;3.53;1.33;;;20.30;99.90;;;;;;4958794;28;20551;-88
2023/06/23 11:54:51;;;;;;;4.40;1.40;;;20.40;99.90;;;;;;4956431;28;20215;-89
2023/06/23 11:57:20;;;;;;;2.40;1.20;;;20.40;99.90;;;;;;4949770;28;20203;-88
2023/06/23 11:59:47;;;;;;;4.43;1.65;;;20.40;99.90;;;;;;4955942;28;20266;-89
2023/06/23 12:02:13;;;;;;;4.40;1.67;;;20.50;99.90;;;;;;4956478;29;20191;-90
2023/06/23 12:04:39;;;;;;;2.20;1.20;;;20.50;99.90;;;;;;4956121;29;20198;-90
2023/06/23 12:07:05;;;;;;;3.33;1.45;;;20.40;99.90;;;;;;4958696;28;20238;-90
2023/06/23 12:09:31;;;;;;;3.72;1.52;;;20.50;99.90;;;;;;4956649;29;20187;-90
2023/06/23 12:11:58;;;;;;;2.35;1.40;;;20.50;99.90;;;;;;4941142;29;20188;-90
2023/06/23 12:14:33;;;;;;;2.65;1.38;;;20.50;99.90;;;;;;4955718;29;20203;-90
2023/06/23 12:17:12;;;;;;;2.88;1.42;;;20.60;99.90;;;;;;4957651;28;20177;-90
2023/06/23 12:19:39;;;;;;;3.55;1.63;;;20.70;99.90;;;;;;4937820;29;20179;-89
2023/06/23 12:22:16;;;;;;;4.93;1.65;;;20.80;99.90;;;;;;4954273;29;20189;-88
2023/06/23 12:24:43;;;;;;;6.47;1.60;;;20.80;99.90;;;;;;4955681;29;20174;-89
2023/06/23 12:27:12;;;;;;;4.13;1.60;;;21.00;99.90;;;;;;4955257;29;20180;-90
2023/06/23 12:29:38;;;;;;;2.90;1.65;;;21.10;99.90;;;;;;4955950;29;20194;-90
2023/06/23 12:32:04;;;;;;;3.42;1.55;;;21.20;99.90;;;;;;4938243;29;20251;-91
2023/06/23 12:34:34;;;;;;;3.53;1.92;;;21.30;99.90;;;;;;4970169;28;20211;-91
2023/06/23 12:37:11;;;;;;;5.57;2.05;;;21.40;99.90;;;;;;4953979;29;20190;-90
2023/06/23 12:39:37;;;;;;;3.50;1.90;;;21.50;99.90;;;;;;4954427;29;20187;-92
2023/06/23 12:42:03;;;;;;;4.40;2.13;;;21.60;99.90;;;;;;4935313;29;20198;-91
2023/06/23 12:44:32;;;;;;;2.78;1.73;;;21.70;99.90;;;;;;4980737;28;20191;-91
2023/06/23 12:47:01;;;;;;;5.13;1.67;;;21.80;99.90;;;;;;4974383;28;20237;-92
2023/06/23 12:49:33;;;;;;;2.97;1.77;;;21.90;99.90;;;;;;4954595;29;20554;-91